createdAt,value
2023-01-11T00:02:02.898Z,3.40
2023-01-11T00:04:33.001Z,3.28
2023-01-11T00:07:01.625Z,2.97
2023-01-11T00:09:30.204Z,2.88
2023-01-11T00:11:58.863Z,3.20
2023-01-11T00:14:27.864Z,2.72
2023-01-11T00:16:56.793Z,2.80
2023-01-11T00:19:25.935Z,2.15
2023-01-11T00:21:55.987Z,1.88
2023-01-11T00:24:24.425Z,2.58
2023-01-11T00:26:53.417Z,1.75
2023-01-11T00:29:22.077Z,2.58
2023-01-11T00:31:50.692Z,1.83
2023-01-11T00:34:20.805Z,1.67
2023-01-11T00:36:49.276Z,1.52
2023-01-11T00:39:19.371Z,1.70
2023-01-11T00:42:05.193Z,2.03
2023-01-11T00:44:50.530Z,1.88
2023-01-11T00:47:36.675Z,2.28
2023-01-11T00:50:06.311Z,2.10
2023-01-11T00:52:34.968Z,1.98
2023-01-11T00:55:06.500Z,2.15
2023-01-11T00:57:35.040Z,2.50
2023-01-11T01:00:04.093Z,2.05
2023-01-11T01:02:34.488Z,2.60
2023-01-11T01:05:03.335Z,3.10
2023-01-11T01:07:33.209Z,2.20
2023-01-11T01:10:01.614Z,2.47
2023-01-11T01:12:49.171Z,2.17
2023-01-11T01:15:17.733Z,2.47
2023-01-11T01:17:46.487Z,2.25
2023-01-11T01:20:16.352Z,2.50
2023-01-11T01:22:44.913Z,1.85
2023-01-11T01:25:13.866Z,1.38
2023-01-11T01:27:44.138Z,2.13
2023-01-11T01:30:13.676Z,2.40
2023-01-11T01:32:42.382Z,1.90
2023-01-11T01:35:11.402Z,2.40
2023-01-11T01:37:40.200Z,2.40
2023-01-11T01:40:10.312Z,2.08
2023-01-11T01:42:38.872Z,2.17
2023-01-11T01:45:20.355Z,1.70
2023-01-11T01:47:54.489Z,2.10
2023-01-11T01:50:27.632Z,2.00
2023-01-11T01:53:07.538Z,2.00
2023-01-11T01:55:40.802Z,2.67
2023-01-11T01:58:14.721Z,2.95
2023-01-11T02:00:46.690Z,1.73
2023-01-11T02:03:18.316Z,2.28
2023-01-11T02:05:49.362Z,2.00
2023-01-11T02:08:26.030Z,1.65
2023-01-11T02:10:56.195Z,2.78
2023-01-11T02:13:25.104Z,1.77
2023-01-11T02:16:09.131Z,2.33
2023-01-11T02:18:38.691Z,2.35
2023-01-11T02:21:23.364Z,2.13
2023-01-11T02:24:26.829Z,2.28
2023-01-11T02:27:18.396Z,2.20
2023-01-11T02:30:06.613Z,1.45
2023-01-11T02:32:48.236Z,2.03
2023-01-11T02:35:23.093Z,2.03
2023-01-11T02:38:02.145Z,1.95
2023-01-11T02:40:42.249Z,2.22
2023-01-11T02:43:37.701Z,1.95
2023-01-11T02:46:17.776Z,1.98
2023-01-11T02:48:55.825Z,2.45
2023-01-11T02:51:30.729Z,2.15
2023-01-11T02:54:04.562Z,2.17
2023-01-11T02:56:39.514Z,1.95
2023-01-11T02:59:12.951Z,1.70
2023-01-11T03:01:53.337Z,1.95
2023-01-11T03:04:28.505Z,1.98
2023-01-11T03:07:17.540Z,1.65
2023-01-11T03:09:55.217Z,1.70
2023-01-11T03:12:55.239Z,2.20
2023-01-11T03:15:36.281Z,1.77
2023-01-11T03:18:21.999Z,2.05
2023-01-11T03:20:56.232Z,2.10
2023-01-11T03:23:35.752Z,2.17
2023-01-11T03:26:15.734Z,1.80
2023-01-11T03:28:54.782Z,3.28
2023-01-11T03:31:30.408Z,1.75
2023-01-11T03:34:07.440Z,2.42
2023-01-11T03:36:41.877Z,1.58
2023-01-11T03:39:21.444Z,2.55
2023-01-11T03:41:53.135Z,2.55
2023-01-11T03:44:23.288Z,2.20
2023-01-11T03:46:56.139Z,2.10
2023-01-11T03:49:31.386Z,1.65
2023-01-11T03:52:03.389Z,1.90
2023-01-11T03:54:33.780Z,2.03
2023-01-11T03:57:07.735Z,2.35
2023-01-11T03:59:36.826Z,2.53
2023-01-11T04:02:05.606Z,2.30
2023-01-11T04:04:36.487Z,2.05
2023-01-11T04:07:05.215Z,3.10
2023-01-11T04:09:34.058Z,1.65
2023-01-11T04:12:02.515Z,1.98
2023-01-11T04:14:31.402Z,2.30
2023-01-11T04:16:59.972Z,2.47
2023-01-11T04:19:28.336Z,2.22
2023-01-11T04:21:59.216Z,2.45
2023-01-11T04:24:27.947Z,2.42
2023-01-11T04:26:57.031Z,2.88
2023-01-11T04:29:26.011Z,2.38
2023-01-11T04:31:54.550Z,2.28
2023-01-11T04:34:23.299Z,2.45
2023-01-11T04:36:51.662Z,1.90
2023-01-11T04:39:21.747Z,2.05
2023-01-11T04:42:07.205Z,2.35
2023-01-11T04:44:35.560Z,2.05
2023-01-11T04:47:04.423Z,2.72
2023-01-11T04:49:33.030Z,2.17
2023-01-11T04:52:01.630Z,2.70
2023-01-11T04:54:31.617Z,2.30
2023-01-11T04:57:00.213Z,2.05
2023-01-11T04:59:28.631Z,2.05
2023-01-11T05:01:57.062Z,1.80
2023-01-11T05:04:25.837Z,2.58
2023-01-11T05:06:54.335Z,2.28
2023-01-11T05:09:23.508Z,2.83
2023-01-11T05:11:53.693Z,2.38
2023-01-11T05:14:22.390Z,2.53
2023-01-11T05:16:51.168Z,3.53
2023-01-11T05:19:20.314Z,2.53
2023-01-11T05:21:48.869Z,2.83
2023-01-11T05:24:18.140Z,2.50
2023-01-11T05:26:48.642Z,2.58
2023-01-11T05:29:21.264Z,3.17
2023-01-11T05:31:50.517Z,2.25
2023-01-11T05:34:20.177Z,2.50
2023-01-11T05:36:48.743Z,2.85
2023-01-11T05:39:17.351Z,1.88
2023-01-11T05:41:46.212Z,3.13
2023-01-11T05:44:32.855Z,2.75
2023-01-11T05:47:04.667Z,3.35
2023-01-11T05:49:33.067Z,2.90
2023-01-11T05:52:01.730Z,2.85
2023-01-11T05:54:30.700Z,2.88
2023-01-11T05:56:59.483Z,2.38
2023-01-11T05:59:29.840Z,3.17
2023-01-11T06:02:00.479Z,2.85
2023-01-11T06:04:30.792Z,2.65
2023-01-11T06:06:59.320Z,2.63
2023-01-11T06:09:28.530Z,2.50
2023-01-11T06:11:57.140Z,2.65
2023-01-11T06:14:25.808Z,3.17
2023-01-11T06:16:55.256Z,3.13
2023-01-11T06:19:24.543Z,3.28
2023-01-11T06:21:55.452Z,2.85
2023-01-11T06:24:24.115Z,2.60
2023-01-11T06:26:54.533Z,3.45
2023-01-11T06:29:23.206Z,3.25
2023-01-11T06:31:52.017Z,2.20
2023-01-11T06:34:20.580Z,2.60
2023-01-11T06:36:49.554Z,2.83
2023-01-11T06:39:20.688Z,2.67
2023-01-11T06:41:49.314Z,3.42
2023-01-11T06:44:17.626Z,2.47
2023-01-11T06:46:46.164Z,2.88
2023-01-11T06:49:14.882Z,2.38
2023-01-11T06:51:43.806Z,3.33
2023-01-11T06:54:12.687Z,2.90
2023-01-11T06:56:42.707Z,2.58
2023-01-11T06:59:11.265Z,3.80
2023-01-11T07:01:39.941Z,2.67
2023-01-11T07:04:08.437Z,3.33
2023-01-11T07:06:37.233Z,2.92
2023-01-11T07:09:05.749Z,2.35
2023-01-11T07:11:35.268Z,2.30
2023-01-11T07:14:05.103Z,2.72
2023-01-11T07:16:33.822Z,3.08
2023-01-11T07:19:02.244Z,2.38
2023-01-11T07:21:31.001Z,2.75
2023-01-11T07:23:59.467Z,2.45
2023-01-11T07:26:28.462Z,2.95
2023-01-11T07:28:56.965Z,2.75
2023-01-11T07:31:26.721Z,2.38
2023-01-11T07:33:55.189Z,2.40
2023-01-11T07:36:23.749Z,2.45
2023-01-11T07:38:52.615Z,2.97
2023-01-11T07:41:34.897Z,2.13
2023-01-11T07:44:03.180Z,2.40
2023-01-11T07:46:33.248Z,2.10
2023-01-11T07:49:02.243Z,2.33
2023-01-11T07:51:30.889Z,2.65
2023-01-11T07:54:03.042Z,2.42
2023-01-11T07:56:32.726Z,2.22
2023-01-11T07:59:01.413Z,2.75
2023-01-11T08:01:29.888Z,2.28
2023-01-11T08:03:59.910Z,2.85
2023-01-11T08:06:28.677Z,2.35
2023-01-11T08:08:57.394Z,3.10
2023-01-11T08:11:43.395Z,2.17
2023-01-11T08:14:29.670Z,2.38
2023-01-11T08:16:58.395Z,2.63
2023-01-11T08:19:28.345Z,1.63
2023-01-11T08:21:59.906Z,2.28
2023-01-11T08:24:28.579Z,1.63
2023-01-11T08:26:57.216Z,2.13
2023-01-11T08:29:26.896Z,2.33
2023-01-11T08:31:55.208Z,1.73
2023-01-11T08:34:24.009Z,2.05
2023-01-11T08:36:54.080Z,1.67
2023-01-11T08:39:23.268Z,1.40
2023-01-11T08:41:52.399Z,2.17
2023-01-11T08:44:33.350Z,1.55
2023-01-11T08:55:34.038Z,1.10
2023-01-11T09:35:25.995Z,1.98
2023-01-11T09:44:41.975Z,1.63
2023-01-11T09:48:03.181Z,2.53
2023-01-11T09:56:14.575Z,2.53
2023-01-11T10:33:17.334Z,2.97
2023-01-11T11:19:37.398Z,1.35
2023-01-11T11:24:47.113Z,1.55
2023-01-11T11:55:30.469Z,0.70
2023-01-11T11:58:35.481Z,1.00
2023-01-11T12:04:01.655Z,1.00
2023-01-11T12:15:24.452Z,1.15
2023-01-11T12:18:20.576Z,1.30
2023-01-11T12:20:50.427Z,1.02
2023-01-11T12:23:24.609Z,1.10
2023-01-11T12:26:20.046Z,1.30
2023-01-11T12:54:53.105Z,1.90
2023-01-11T13:18:32.872Z,2.05
2023-01-11T13:21:26.623Z,2.22
2023-01-11T13:24:25.912Z,2.10
2023-01-11T13:27:00.549Z,2.33
2023-01-11T13:29:36.529Z,2.42
2023-01-11T13:32:19.910Z,2.08
2023-01-11T13:34:56.285Z,2.17
2023-01-11T13:37:32.718Z,2.38
2023-01-11T13:40:09.106Z,2.55
2023-01-11T13:42:41.794Z,2.20
2023-01-11T13:45:19.377Z,2.72
2023-01-11T13:47:52.535Z,3.33
2023-01-11T13:50:29.958Z,3.13
2023-01-11T13:53:04.165Z,2.72
2023-01-11T13:55:42.005Z,3.30
2023-01-11T13:58:18.316Z,2.70
2023-01-11T14:00:55.153Z,3.70
2023-01-11T14:03:32.564Z,3.10
2023-01-11T14:06:21.327Z,4.25
2023-01-11T14:09:08.000Z,3.33
2023-01-11T14:11:46.304Z,3.35
2023-01-11T14:14:40.115Z,3.13
2023-01-11T14:17:40.261Z,3.45
2023-01-11T14:20:22.219Z,4.35
2023-01-11T14:23:03.511Z,4.05
2023-01-11T14:25:37.132Z,3.42
2023-01-11T14:28:16.812Z,4.13
2023-01-11T14:31:18.234Z,3.42
2023-01-11T14:34:18.176Z,4.07
2023-01-11T14:37:07.225Z,4.20
2023-01-11T14:40:11.384Z,3.90
2023-01-11T14:43:13.267Z,4.90
2023-01-11T14:46:01.663Z,4.15
2023-01-11T14:48:47.287Z,4.72
2023-01-11T14:51:33.130Z,4.50
2023-01-11T14:54:08.277Z,5.47
2023-01-11T14:56:53.584Z,5.15
2023-01-11T14:59:38.805Z,4.97
2023-01-11T15:02:30.145Z,4.80
2023-01-11T15:05:12.036Z,5.78
2023-01-11T15:07:43.847Z,4.55
2023-01-11T15:10:42.195Z,5.35
2023-01-11T15:13:16.703Z,4.85
2023-01-11T15:16:04.434Z,5.00
2023-01-11T15:18:34.499Z,4.65
2023-01-11T15:21:07.092Z,5.72
2023-01-11T15:23:38.963Z,4.88
2023-01-11T15:26:09.636Z,5.13
2023-01-11T15:28:46.627Z,4.85
2023-01-11T15:31:40.182Z,4.60
2023-01-11T15:34:43.102Z,5.13
2023-01-11T15:37:45.673Z,4.63
2023-01-11T15:40:21.226Z,5.07
2023-01-11T15:43:29.860Z,4.38
2023-01-11T15:46:46.187Z,3.92
2023-01-11T15:49:58.997Z,5.70
2023-01-11T15:52:58.194Z,5.68
2023-01-11T15:56:00.825Z,5.57
2023-01-11T15:59:03.445Z,6.55
2023-01-11T16:01:36.903Z,5.05
2023-01-11T16:04:29.696Z,5.25
2023-01-11T16:07:05.903Z,5.45
2023-01-11T16:10:08.439Z,5.57
2023-01-11T16:12:57.384Z,6.47
2023-01-11T16:15:50.735Z,6.85
2023-01-11T16:18:24.662Z,5.88
2023-01-11T16:21:02.905Z,6.20
2023-01-11T16:23:34.648Z,7.00
2023-01-11T16:26:05.256Z,5.82
2023-01-11T16:28:33.925Z,6.97
2023-01-11T16:31:06.811Z,6.93
2023-01-11T16:33:37.707Z,6.53
2023-01-11T16:36:12.069Z,7.78
2023-01-11T16:39:09.118Z,7.13
2023-01-11T16:41:46.624Z,6.25
2023-01-11T16:44:27.573Z,7.47
2023-01-11T16:47:15.615Z,7.55
2023-01-11T16:49:49.218Z,8.35
2023-01-11T16:52:47.372Z,7.72
2023-01-11T16:55:32.635Z,8.90
2023-01-11T16:58:03.402Z,9.10
2023-01-11T17:00:36.478Z,7.38
2023-01-11T17:03:20.492Z,7.57
2023-01-11T17:06:02.261Z,7.75
2023-01-11T17:08:35.070Z,7.35
2023-01-11T17:11:12.132Z,8.15
2023-01-11T17:14:03.880Z,8.15
2023-01-11T17:16:38.133Z,7.95
2023-01-11T17:19:14.225Z,8.45
2023-01-11T17:21:50.662Z,7.53
2023-01-11T17:24:24.313Z,8.20
2023-01-11T17:26:57.906Z,7.82
2023-01-11T17:29:32.996Z,8.32
2023-01-11T17:32:04.556Z,6.82
2023-01-11T17:34:35.304Z,8.13
2023-01-11T17:37:10.533Z,7.72
2023-01-11T17:39:43.769Z,7.70
2023-01-11T17:42:34.010Z,7.40
2023-01-11T17:45:14.517Z,7.43
2023-01-11T17:47:45.746Z,8.00
2023-01-11T17:50:30.145Z,6.85
2023-01-11T17:53:07.831Z,8.43
2023-01-11T17:55:36.541Z,6.70
2023-01-11T17:58:28.581Z,5.75
2023-01-11T18:01:23.689Z,6.60
2023-01-11T18:03:54.697Z,5.45
2023-01-11T18:06:29.269Z,6.78
2023-01-11T18:09:00.921Z,6.40
2023-01-11T18:11:32.127Z,4.65
2023-01-11T18:14:05.933Z,5.32
2023-01-11T18:16:39.451Z,4.80
2023-01-11T18:19:25.701Z,5.70
2023-01-11T18:21:57.988Z,5.97
2023-01-11T18:24:43.594Z,5.40
2023-01-11T18:27:30.298Z,4.63
2023-01-11T18:30:02.974Z,4.80
2023-01-11T18:32:42.381Z,4.70
2023-01-11T18:35:18.867Z,4.82
2023-01-11T18:37:48.115Z,3.83
2023-01-11T18:40:18.124Z,4.30
2023-01-11T18:42:51.247Z,5.53
2023-01-11T18:45:22.098Z,3.10
2023-01-11T18:47:50.600Z,2.53
2023-01-11T18:50:19.803Z,3.10
2023-01-11T18:52:49.830Z,3.97
2023-01-11T18:55:19.348Z,3.53
2023-01-11T18:57:48.642Z,3.25
2023-01-11T19:00:18.907Z,3.10
2023-01-11T19:02:49.065Z,2.63
2023-01-11T19:05:19.918Z,2.70
2023-01-11T19:07:49.445Z,3.42
2023-01-11T19:10:20.733Z,2.72
2023-01-11T19:12:49.856Z,3.92
2023-01-11T19:15:19.122Z,2.67
2023-01-11T19:17:49.341Z,3.17
2023-01-11T19:20:18.326Z,2.65
2023-01-11T19:22:46.996Z,2.25
2023-01-11T19:25:15.511Z,2.63
2023-01-11T19:27:44.172Z,2.72
2023-01-11T19:30:14.335Z,2.30
2023-01-11T19:32:42.937Z,2.63
2023-01-11T19:35:13.082Z,2.85
2023-01-11T19:37:41.685Z,2.30
2023-01-11T19:40:11.734Z,2.78
2023-01-11T19:42:40.450Z,2.50
2023-01-11T19:45:10.143Z,2.30
2023-01-11T19:47:39.047Z,2.50
2023-01-11T19:50:08.244Z,2.75
2023-01-11T19:52:38.764Z,2.45
2023-01-11T19:55:08.353Z,3.25
2023-01-11T19:57:37.425Z,2.33
2023-01-11T20:00:06.493Z,2.80
2023-01-11T20:02:35.318Z,2.35
2023-01-11T20:05:04.066Z,2.20
2023-01-11T20:07:32.467Z,1.80
2023-01-11T20:10:02.752Z,1.70
2023-01-11T20:12:31.390Z,1.85
2023-01-11T20:15:01.732Z,1.30
2023-01-11T20:17:30.849Z,1.30
2023-01-11T20:19:59.552Z,1.60
2023-01-11T20:22:28.815Z,1.55
2023-01-11T20:24:57.472Z,2.03
2023-01-11T20:27:27.716Z,2.15
2023-01-11T20:29:56.515Z,1.90
2023-01-11T20:32:40.455Z,2.20
2023-01-11T20:35:11.674Z,2.03
2023-01-11T20:37:40.296Z,2.50
2023-01-11T20:40:12.462Z,2.90
2023-01-11T20:42:45.033Z,3.20
2023-01-11T20:45:13.696Z,2.00
2023-01-11T20:47:42.280Z,2.05
2023-01-11T20:50:12.183Z,1.80
2023-01-11T20:52:40.941Z,1.67
2023-01-11T20:55:10.688Z,1.83
2023-01-11T20:57:39.345Z,2.78
2023-01-11T21:00:15.331Z,2.58
2023-01-11T21:02:43.981Z,2.17
2023-01-11T21:05:12.588Z,2.17
2023-01-11T21:07:41.233Z,2.30
2023-01-11T21:10:10.992Z,1.27
2023-01-11T21:12:39.535Z,0.80
2023-01-11T21:15:11.131Z,1.20
2023-01-11T21:17:39.605Z,1.20
2023-01-11T21:20:09.916Z,1.10
2023-01-11T21:22:38.250Z,1.25
2023-01-11T21:25:07.590Z,1.38
2023-01-11T21:27:37.204Z,1.42
2023-01-11T21:30:06.513Z,1.10
2023-01-11T21:32:36.531Z,1.08
2023-01-11T21:35:05.785Z,1.00
2023-01-11T21:37:34.792Z,0.90
2023-01-11T21:40:03.319Z,1.20
2023-01-11T21:42:31.654Z,1.17
2023-01-11T21:45:00.784Z,1.02
2023-01-11T21:47:29.293Z,1.10
2023-01-11T21:50:00.019Z,1.38
2023-01-11T21:52:28.548Z,1.40
2023-01-11T21:54:57.348Z,1.40
2023-01-11T21:57:25.844Z,0.93
2023-01-11T21:59:55.203Z,0.93
2023-01-11T22:02:23.836Z,1.13
2023-01-11T22:04:57.855Z,1.08
2023-01-11T22:07:29.000Z,1.10
2023-01-11T22:10:04.440Z,0.90
2023-01-11T22:12:35.232Z,1.23
2023-01-11T22:15:03.973Z,1.20
2023-01-11T22:17:32.502Z,1.08
2023-01-11T22:20:00.809Z,1.40
2023-01-11T22:22:30.737Z,1.35
2023-01-11T22:24:59.979Z,0.85
2023-01-11T22:27:28.619Z,1.20
2023-01-11T22:29:57.076Z,1.95
2023-01-11T22:32:26.176Z,1.70
2023-01-11T22:34:54.653Z,1.67
2023-01-11T22:37:22.931Z,1.17
2023-01-11T22:39:52.925Z,1.95
2023-01-11T22:42:21.581Z,1.48
2023-01-11T22:44:51.167Z,2.38
2023-01-11T22:47:19.743Z,2.33
2023-01-11T22:49:54.067Z,1.45
2023-01-11T22:52:23.067Z,1.95
2023-01-11T22:54:53.241Z,1.70
2023-01-11T22:57:21.670Z,1.75
2023-01-11T22:59:50.357Z,1.92
2023-01-11T23:02:18.867Z,2.35
2023-01-11T23:04:47.339Z,2.40
2023-01-11T23:07:15.897Z,2.78
2023-01-11T23:09:44.207Z,2.88
2023-01-11T23:12:32.393Z,3.53
2023-01-11T23:15:01.065Z,2.65
2023-01-11T23:17:29.406Z,2.90
2023-01-11T23:19:57.969Z,4.00
2023-01-11T23:22:26.515Z,3.65
2023-01-11T23:24:55.078Z,5.13
2023-01-11T23:27:25.208Z,3.35
2023-01-11T23:29:53.689Z,3.42
2023-01-11T23:32:22.660Z,3.42
2023-01-11T23:34:51.012Z,3.00
2023-01-11T23:37:19.587Z,3.95
2023-01-11T23:39:48.627Z,3.83
2023-01-11T23:42:27.990Z,4.38
2023-01-11T23:44:59.411Z,2.80
2023-01-11T23:47:29.896Z,3.13
2023-01-11T23:50:01.428Z,4.28
2023-01-11T23:52:33.820Z,4.63
2023-01-11T23:55:02.679Z,4.43
2023-01-11T23:57:31.237Z,4.35
